createdAt,value
2019-05-22T00:00:06.501Z,12.96
2019-05-22T00:01:06.480Z,12.92
2019-05-22T00:02:06.459Z,12.92
2019-05-22T00:03:06.433Z,12.97
2019-05-22T00:04:06.408Z,12.97
2019-05-22T00:05:06.386Z,13.00
2019-05-22T00:06:06.363Z,13.00
2019-05-22T00:07:06.339Z,13.00
2019-05-22T00:08:06.315Z,12.97
2019-05-22T00:09:06.296Z,13.00
2019-05-22T00:10:06.275Z,13.02
2019-05-22T00:11:06.248Z,13.00
2019-05-22T00:12:06.224Z,12.99
2019-05-22T00:13:06.205Z,13.02
2019-05-22T00:14:06.179Z,13.02
2019-05-22T00:15:06.163Z,12.99
2019-05-22T00:16:06.137Z,12.93
2019-05-22T00:17:06.109Z,12.87
2019-05-22T00:18:06.090Z,12.97
2019-05-22T00:19:06.062Z,12.95
2019-05-22T00:20:06.053Z,12.89
2019-05-22T00:21:06.023Z,12.97
2019-05-22T00:22:05.997Z,12.85
2019-05-22T00:23:05.970Z,12.85
2019-05-22T00:24:05.947Z,12.82
2019-05-22T00:25:05.923Z,12.81
2019-05-22T00:26:05.901Z,12.82
2019-05-22T00:27:05.880Z,12.84
2019-05-22T00:28:05.861Z,12.93
2019-05-22T00:29:05.885Z,13.00
2019-05-22T00:30:05.809Z,12.92
2019-05-22T00:31:05.787Z,12.95
2019-05-22T00:32:05.764Z,12.92
2019-05-22T00:33:05.745Z,12.92
2019-05-22T00:34:05.718Z,12.92
2019-05-22T00:35:05.693Z,12.89
2019-05-22T00:36:05.670Z,12.92
2019-05-22T00:37:05.646Z,12.84
2019-05-22T00:38:06.663Z,12.92
2019-05-22T00:39:05.601Z,12.82
2019-05-22T00:40:05.578Z,12.81
2019-05-22T00:41:05.554Z,12.84
2019-05-22T00:42:05.531Z,12.88
2019-05-22T00:43:13.519Z,12.84
2019-05-22T00:44:05.483Z,12.88
2019-05-22T00:45:05.464Z,12.88
2019-05-22T00:46:05.436Z,12.81
2019-05-22T00:47:05.415Z,12.92
2019-05-22T00:48:05.395Z,12.82
2019-05-22T00:49:05.368Z,12.85
2019-05-22T00:50:05.344Z,12.81
2019-05-22T00:51:05.321Z,12.85
2019-05-22T00:52:05.298Z,12.87
2019-05-22T00:53:05.274Z,12.85
2019-05-22T00:54:05.251Z,12.92
2019-05-22T00:55:05.230Z,12.84
2019-05-22T00:56:05.204Z,12.84
2019-05-22T00:57:05.181Z,12.82
2019-05-22T00:58:05.158Z,12.78
2019-05-22T00:59:05.135Z,12.96
2019-05-22T01:00:05.113Z,12.87
2019-05-22T01:01:05.088Z,12.85
2019-05-22T01:02:05.068Z,12.85
2019-05-22T01:03:05.042Z,12.88
2019-05-22T01:04:05.019Z,12.92
2019-05-22T01:05:05.006Z,12.78
2019-05-22T01:06:04.973Z,12.93
2019-05-22T01:07:04.950Z,12.95
2019-05-22T01:08:04.930Z,12.79
2019-05-22T01:09:04.902Z,12.96
2019-05-22T01:10:06.603Z,12.82
2019-05-22T01:11:04.857Z,12.92
2019-05-22T01:12:04.834Z,12.88
2019-05-22T01:13:04.816Z,12.97
2019-05-22T01:14:04.788Z,12.95
2019-05-22T01:15:04.994Z,12.96
2019-05-22T01:16:04.739Z,13.02
2019-05-22T01:17:04.766Z,12.79
2019-05-22T01:18:04.694Z,12.85
2019-05-22T01:19:04.671Z,12.88
2019-05-22T01:20:04.648Z,12.84
2019-05-22T01:21:04.727Z,12.92
2019-05-22T01:22:04.738Z,12.81
2019-05-22T01:23:04.579Z,12.87
2019-05-22T01:24:04.557Z,12.87
2019-05-22T01:25:04.533Z,12.78
2019-05-22T01:26:04.524Z,12.82
2019-05-22T01:27:04.492Z,12.87
2019-05-22T01:28:04.461Z,12.88
2019-05-22T01:29:04.439Z,12.89
2019-05-22T01:30:04.417Z,12.87
2019-05-22T01:31:04.395Z,12.92
2019-05-22T01:32:04.370Z,12.89
2019-05-22T01:33:04.348Z,12.87
2019-05-22T01:34:04.332Z,12.82
2019-05-22T01:35:04.302Z,12.82
2019-05-22T01:36:04.279Z,12.87
2019-05-22T01:37:04.256Z,12.87
2019-05-22T01:38:04.233Z,12.85
2019-05-22T01:39:04.231Z,12.93
2019-05-22T01:40:04.187Z,12.81
2019-05-22T01:41:04.164Z,12.85
2019-05-22T01:42:04.144Z,12.82
2019-05-22T01:43:04.119Z,12.89
2019-05-22T01:44:04.094Z,12.78
2019-05-22T01:45:06.751Z,12.87
2019-05-22T01:46:04.049Z,12.81
2019-05-22T01:47:04.026Z,12.89
2019-05-22T01:48:04.028Z,12.81
2019-05-22T01:49:03.981Z,12.79
2019-05-22T01:50:03.965Z,12.82
2019-05-22T01:51:03.935Z,12.82
2019-05-22T01:52:03.927Z,12.82
2019-05-22T01:53:03.935Z,12.84
2019-05-22T01:54:03.883Z,12.78
2019-05-22T01:55:03.845Z,12.64
2019-05-22T01:56:03.839Z,12.74
2019-05-22T01:57:03.799Z,12.75
2019-05-22T01:58:07.527Z,12.79
2019-05-22T01:59:03.760Z,12.84
2019-05-22T02:00:03.726Z,12.78
2019-05-22T02:01:03.704Z,12.92
2019-05-22T02:02:03.681Z,12.89
2019-05-22T02:03:03.671Z,12.82
2019-05-22T02:04:03.634Z,12.85
2019-05-22T02:05:03.614Z,12.78
2019-05-22T02:06:03.589Z,12.89
2019-05-22T02:07:03.566Z,12.87
2019-05-22T02:08:03.543Z,12.82
2019-05-22T02:09:03.520Z,12.87
2019-05-22T02:10:03.496Z,12.87
2019-05-22T02:11:03.473Z,12.87
2019-05-22T02:12:03.450Z,12.78
2019-05-22T02:13:03.427Z,12.92
2019-05-22T02:14:03.407Z,12.81
2019-05-22T02:15:03.381Z,12.84
2019-05-22T02:16:03.362Z,12.89
2019-05-22T02:17:03.335Z,12.78
2019-05-22T02:18:03.313Z,12.84
2019-05-22T02:19:03.290Z,12.82
2019-05-22T02:20:03.867Z,12.81
2019-05-22T02:21:03.244Z,12.78
2019-05-22T02:22:03.220Z,12.85
2019-05-22T02:23:03.198Z,12.81
2019-05-22T02:24:03.175Z,12.78
2019-05-22T02:25:03.151Z,12.79
2019-05-22T02:26:03.128Z,12.81
2019-05-22T02:27:03.448Z,12.77
2019-05-22T02:28:03.084Z,12.79
2019-05-22T02:29:03.060Z,12.71
2019-05-22T02:30:03.045Z,12.77
2019-05-22T02:31:03.014Z,12.78
2019-05-22T02:32:02.991Z,12.74
2019-05-22T02:33:02.967Z,12.71
2019-05-22T02:34:03.008Z,12.79
2019-05-22T02:35:02.920Z,12.82
2019-05-22T02:36:03.650Z,12.74
2019-05-22T02:37:02.884Z,12.75
2019-05-22T02:38:02.853Z,12.78
2019-05-22T02:39:02.835Z,12.78
2019-05-22T02:40:02.821Z,12.75
2019-05-22T02:41:02.784Z,12.78
2019-05-22T02:42:02.770Z,12.75
2019-05-22T02:43:02.758Z,12.66
2019-05-22T02:44:02.714Z,12.78
2019-05-22T02:45:02.709Z,12.74
2019-05-22T02:46:02.667Z,12.64
2019-05-22T02:47:17.797Z,12.69
2019-05-22T02:48:02.631Z,12.67
2019-05-22T02:49:02.607Z,12.64
2019-05-22T02:50:02.577Z,12.64
2019-05-22T02:51:02.552Z,12.63
2019-05-22T02:52:02.531Z,12.67
2019-05-22T02:53:02.506Z,12.66
2019-05-22T02:54:02.484Z,12.70
2019-05-22T02:55:02.464Z,12.60
2019-05-22T02:56:02.439Z,12.75
2019-05-22T02:57:02.418Z,12.74
2019-05-22T02:58:02.391Z,12.69
2019-05-22T02:59:02.372Z,12.60
2019-05-22T03:00:02.344Z,12.66
2019-05-22T03:01:02.355Z,12.66
2019-05-22T03:02:02.302Z,12.60
2019-05-22T03:03:02.277Z,12.71
2019-05-22T03:04:02.261Z,12.62
2019-05-22T03:05:02.330Z,12.81
2019-05-22T03:06:02.211Z,12.89
2019-05-22T03:07:02.190Z,12.48
2019-05-22T03:08:02.173Z,12.51
2019-05-22T03:09:02.144Z,12.60
2019-05-22T03:10:02.118Z,12.79
2019-05-22T03:11:02.091Z,12.49
2019-05-22T03:12:02.083Z,12.51
2019-05-22T03:13:02.046Z,12.54
2019-05-22T03:14:02.020Z,12.46
2019-05-22T03:15:02.447Z,12.49
2019-05-22T03:16:01.975Z,12.48
2019-05-22T03:17:01.951Z,12.46
2019-05-22T03:18:01.932Z,12.51
2019-05-22T03:19:08.770Z,12.62
2019-05-22T03:20:01.889Z,12.70
2019-05-22T03:21:01.859Z,12.63
2019-05-22T03:22:01.837Z,12.56
2019-05-22T03:23:02.574Z,12.60
2019-05-22T03:24:01.789Z,12.69
2019-05-22T03:25:01.774Z,12.67
2019-05-22T03:26:01.745Z,12.63
2019-05-22T03:27:01.720Z,12.84
2019-05-22T03:28:01.697Z,12.88
2019-05-22T03:29:01.686Z,12.66
2019-05-22T03:30:01.738Z,12.59
2019-05-22T03:31:01.635Z,12.64
2019-05-22T03:32:01.625Z,12.69
2019-05-22T03:33:01.613Z,12.63
2019-05-22T03:34:01.584Z,12.77
2019-05-22T03:35:01.546Z,12.63
2019-05-22T03:36:01.519Z,12.74
2019-05-22T03:37:01.488Z,12.63
2019-05-22T03:38:01.468Z,12.66
2019-05-22T03:39:01.443Z,12.64
2019-05-22T03:40:01.418Z,12.70
2019-05-22T03:41:01.394Z,12.59
2019-05-22T03:42:01.373Z,12.74
2019-05-22T03:43:01.355Z,12.66
2019-05-22T03:44:01.323Z,12.59
2019-05-22T03:45:01.304Z,12.57
2019-05-22T03:46:01.279Z,12.62
2019-05-22T03:47:01.258Z,12.66
2019-05-22T03:48:01.231Z,12.60
2019-05-22T03:49:01.221Z,12.59
2019-05-22T03:50:01.187Z,12.71
2019-05-22T03:51:01.161Z,12.64
2019-05-22T03:52:01.141Z,12.63
2019-05-22T03:53:01.118Z,12.74
2019-05-22T03:54:01.099Z,12.57
2019-05-22T03:55:01.070Z,12.78
2019-05-22T03:56:01.045Z,12.71
2019-05-22T03:57:01.023Z,12.67
2019-05-22T03:58:01.001Z,12.63
2019-05-22T03:59:00.976Z,12.69
2019-05-22T04:00:00.952Z,12.59
2019-05-22T04:01:00.948Z,12.63
2019-05-22T04:02:00.910Z,12.66
2019-05-22T04:03:00.884Z,12.67
2019-05-22T04:04:00.858Z,12.67
2019-05-22T04:05:00.838Z,12.67
2019-05-22T04:06:01.564Z,12.78
2019-05-22T04:07:00.793Z,12.77
2019-05-22T04:08:00.767Z,12.81
2019-05-22T04:09:00.744Z,12.82
2019-05-22T04:10:00.737Z,12.84
2019-05-22T04:11:00.697Z,12.78
2019-05-22T04:12:00.673Z,12.79
2019-05-22T04:13:00.651Z,12.69
2019-05-22T04:14:00.634Z,12.67
2019-05-22T04:15:00.605Z,12.67
2019-05-22T04:16:00.589Z,12.64
2019-05-22T04:17:00.559Z,12.77
2019-05-22T04:18:00.543Z,12.79
2019-05-22T04:19:00.513Z,12.74
2019-05-22T04:20:00.489Z,12.64
2019-05-22T04:21:00.471Z,12.71
2019-05-22T04:22:00.443Z,12.66
2019-05-22T04:23:00.422Z,12.59
2019-05-22T04:24:00.397Z,12.59
2019-05-22T04:25:00.378Z,12.77
2019-05-22T04:26:00.351Z,12.81
2019-05-22T04:27:00.326Z,12.48
2019-05-22T04:28:00.313Z,12.69
2019-05-22T04:29:00.281Z,12.75
2019-05-22T04:30:00.258Z,12.64
2019-05-22T04:31:00.325Z,12.71
2019-05-22T04:32:00.225Z,12.74
2019-05-22T04:33:00.188Z,12.85
2019-05-22T04:34:00.166Z,12.85
2019-05-22T04:35:00.141Z,12.81
2019-05-22T04:36:00.129Z,12.64
2019-05-22T04:37:00.095Z,12.70
2019-05-22T04:38:00.073Z,12.63
2019-05-22T04:39:00.050Z,12.59
2019-05-22T04:40:00.025Z,12.64
2019-05-22T04:41:00.008Z,12.64
2019-05-22T04:41:59.979Z,12.63
2019-05-22T04:42:59.957Z,12.59
2019-05-22T04:44:00.684Z,12.64
2019-05-22T04:44:59.910Z,12.56
2019-05-22T04:45:59.888Z,12.69
2019-05-22T04:46:59.867Z,12.62
2019-05-22T04:47:59.853Z,12.66
2019-05-22T04:48:59.817Z,12.75
2019-05-22T04:50:07.394Z,12.74
2019-05-22T04:50:59.773Z,12.66
2019-05-22T04:51:59.752Z,12.66
2019-05-22T04:52:59.724Z,12.67
2019-05-22T04:53:59.702Z,12.64
2019-05-22T04:55:00.430Z,12.63
2019-05-22T04:55:59.655Z,12.74
2019-05-22T04:56:59.631Z,12.59
2019-05-22T04:57:59.614Z,12.48
2019-05-22T04:58:59.590Z,12.64
2019-05-22T04:59:59.561Z,12.52
2019-05-22T05:00:59.541Z,12.49
2019-05-22T05:01:59.516Z,12.49
2019-05-22T05:02:59.493Z,12.60
2019-05-22T05:03:59.494Z,12.57
2019-05-22T05:04:59.444Z,12.48
2019-05-22T05:05:59.423Z,12.60
2019-05-22T05:06:59.399Z,12.59
2019-05-22T05:07:59.375Z,12.57
2019-05-22T05:08:59.354Z,12.63
2019-05-22T05:09:59.329Z,12.59
2019-05-22T05:10:59.305Z,12.59
2019-05-22T05:11:59.282Z,12.63
2019-05-22T05:12:59.259Z,12.67
2019-05-22T05:13:59.235Z,12.63
2019-05-22T05:14:59.213Z,12.71
2019-05-22T05:15:59.187Z,12.63
2019-05-22T05:16:59.165Z,12.62
2019-05-22T05:17:59.143Z,12.63
2019-05-22T05:18:59.120Z,12.59
2019-05-22T05:19:59.094Z,12.52
2019-05-22T05:20:59.084Z,12.46
2019-05-22T05:21:59.050Z,12.56
2019-05-22T05:22:59.037Z,12.60
2019-05-22T05:23:59.002Z,12.62
2019-05-22T05:24:59.078Z,12.62
2019-05-22T05:25:58.955Z,12.57
2019-05-22T05:26:58.975Z,12.71
2019-05-22T05:27:58.908Z,12.69
2019-05-22T05:28:58.884Z,12.70
2019-05-22T05:29:58.864Z,12.77
2019-05-22T05:30:58.839Z,12.78
2019-05-22T05:31:58.815Z,12.79
2019-05-22T05:32:58.792Z,12.79
2019-05-22T05:33:58.770Z,12.82
2019-05-22T05:34:58.745Z,12.78
2019-05-22T05:35:58.722Z,12.85
2019-05-22T05:36:58.696Z,12.88
2019-05-22T05:37:58.676Z,12.89
2019-05-22T05:38:58.652Z,12.84
2019-05-22T05:39:58.627Z,12.82
2019-05-22T05:40:58.606Z,12.82
2019-05-22T05:41:58.582Z,12.78
2019-05-22T05:42:58.559Z,12.79
2019-05-22T05:43:58.536Z,12.82
2019-05-22T05:44:58.512Z,12.82
2019-05-22T05:45:58.492Z,12.82
2019-05-22T05:46:58.467Z,12.93
2019-05-22T05:47:58.442Z,12.97
2019-05-22T05:49:00.672Z,12.88
2019-05-22T05:49:58.398Z,13.00
2019-05-22T05:50:58.373Z,13.04
2019-05-22T05:51:58.350Z,12.93
2019-05-22T05:52:58.328Z,12.97
2019-05-22T05:53:58.304Z,12.99
2019-05-22T05:54:59.033Z,12.79
2019-05-22T05:55:58.258Z,12.96
2019-05-22T05:56:58.235Z,12.78
2019-05-22T05:57:58.213Z,12.67
2019-05-22T05:58:58.190Z,12.77
2019-05-22T05:59:58.166Z,12.85
2019-05-22T06:00:58.146Z,12.82
2019-05-22T06:01:58.192Z,12.75
2019-05-22T06:02:58.098Z,12.78
2019-05-22T06:03:58.075Z,12.82
2019-05-22T06:04:58.052Z,12.88
2019-05-22T06:05:58.029Z,12.96
2019-05-22T06:07:00.858Z,13.15
2019-05-22T06:07:57.986Z,13.20
2019-05-22T06:08:57.959Z,13.36
2019-05-22T06:09:57.938Z,13.14
2019-05-22T06:10:57.914Z,13.00
2019-05-22T06:11:57.891Z,12.97
2019-05-22T06:12:57.868Z,13.07
2019-05-22T06:13:57.848Z,13.02
2019-05-22T06:14:57.822Z,13.02
2019-05-22T06:15:57.800Z,13.18
2019-05-22T06:16:57.778Z,13.02
2019-05-22T06:17:57.755Z,13.14
2019-05-22T06:18:57.735Z,13.18
2019-05-22T06:19:57.711Z,13.21
2019-05-22T06:21:03.757Z,13.27
2019-05-22T06:21:57.664Z,13.38
2019-05-22T06:22:57.642Z,13.56
2019-05-22T06:23:57.615Z,13.41
2019-05-22T06:24:57.597Z,13.38
2019-05-22T06:25:57.571Z,13.46
2019-05-22T06:26:57.547Z,13.22
2019-05-22T06:27:57.534Z,13.27
2019-05-22T06:28:57.502Z,13.30
2019-05-22T06:29:57.566Z,13.25
2019-05-22T06:30:57.457Z,13.14
2019-05-22T06:31:57.433Z,13.11
2019-05-22T06:32:57.411Z,13.12
2019-05-22T06:33:57.388Z,13.29
2019-05-22T06:34:59.744Z,13.20
2019-05-22T06:35:57.341Z,13.25
2019-05-22T06:36:57.320Z,13.11
2019-05-22T06:37:57.297Z,13.14
2019-05-22T06:38:57.274Z,13.29
2019-05-22T06:39:57.250Z,13.40
2019-05-22T06:40:57.228Z,13.52
2019-05-22T06:41:57.205Z,13.62
2019-05-22T06:42:57.183Z,13.69
2019-05-22T06:43:57.160Z,13.44
2019-05-22T06:44:57.136Z,13.61
2019-05-22T06:45:57.115Z,13.73
2019-05-22T06:46:57.091Z,13.59
2019-05-22T06:47:57.067Z,13.67
2019-05-22T06:48:57.046Z,13.83
2019-05-22T06:49:57.026Z,13.73
2019-05-22T06:50:57.003Z,13.73
2019-05-22T06:51:56.978Z,13.87
2019-05-22T06:53:09.542Z,13.70
2019-05-22T06:53:56.932Z,13.73
2019-05-22T06:54:56.915Z,13.61
2019-05-22T06:55:56.884Z,13.49
2019-05-22T06:56:56.861Z,13.59
2019-05-22T06:57:56.839Z,13.49
2019-05-22T06:58:57.567Z,13.54
2019-05-22T07:00:12.455Z,13.69
2019-05-22T07:00:56.771Z,13.71
2019-05-22T07:02:01.231Z,13.89
2019-05-22T07:02:56.726Z,13.69
2019-05-22T07:03:56.703Z,13.67
2019-05-22T07:04:56.679Z,13.58
2019-05-22T07:05:56.657Z,13.58
2019-05-22T07:06:56.638Z,13.71
2019-05-22T07:07:56.610Z,13.70
2019-05-22T07:08:56.589Z,13.80
2019-05-22T07:09:58.884Z,13.74
2019-05-22T07:10:56.591Z,13.83
2019-05-22T07:11:56.520Z,13.95
2019-05-22T07:12:56.497Z,13.76
2019-05-22T07:13:56.478Z,13.77
2019-05-22T07:14:56.452Z,13.83
2019-05-22T07:15:57.930Z,13.76
2019-05-22T07:16:56.406Z,13.67
2019-05-22T07:17:56.382Z,13.71
2019-05-22T07:18:56.361Z,13.67
2019-05-22T07:19:56.339Z,13.74
2019-05-22T07:20:56.316Z,13.95
2019-05-22T07:21:57.042Z,13.96
2019-05-22T07:22:56.269Z,13.95
2019-05-22T07:23:56.245Z,14.01
2019-05-22T07:24:56.223Z,14.10
2019-05-22T07:25:56.202Z,14.16
2019-05-22T07:26:56.178Z,14.32
2019-05-22T07:27:56.167Z,14.37
2019-05-22T07:28:56.132Z,14.35
2019-05-22T07:29:56.111Z,14.29
2019-05-22T07:30:56.089Z,14.16
2019-05-22T07:31:56.064Z,14.20
2019-05-22T07:32:56.049Z,14.20
2019-05-22T07:33:56.019Z,14.14
2019-05-22T07:34:55.997Z,14.24
2019-05-22T07:36:09.235Z,14.17
2019-05-22T07:36:55.950Z,14.16
2019-05-22T07:37:56.679Z,14.32
2019-05-22T07:38:55.905Z,14.42
2019-05-22T07:39:55.882Z,14.42
2019-05-22T07:40:55.871Z,14.47
2019-05-22T07:41:55.837Z,14.57
2019-05-22T07:42:56.240Z,14.49
2019-05-22T07:43:55.792Z,14.64
2019-05-22T07:44:55.777Z,14.47
2019-05-22T07:45:55.982Z,14.27
2019-05-22T07:46:55.728Z,14.27
2019-05-22T07:47:55.757Z,14.39
2019-05-22T07:48:57.182Z,14.57
2019-05-22T07:49:55.660Z,14.53
2019-05-22T07:50:55.637Z,14.52
2019-05-22T07:52:01.238Z,14.69
2019-05-22T07:52:55.592Z,14.71
2019-05-22T07:53:55.570Z,14.86
2019-05-22T07:54:55.547Z,14.80
2019-05-22T07:55:55.567Z,14.71
2019-05-22T07:56:55.501Z,14.72
2019-05-22T07:57:55.500Z,14.72
2019-05-22T07:58:58.885Z,14.95
2019-05-22T07:59:55.436Z,15.05
2019-05-22T08:00:55.414Z,14.88
2019-05-22T08:01:55.392Z,14.75
2019-05-22T08:02:55.371Z,14.69
2019-05-22T08:03:55.347Z,14.81
2019-05-22T08:04:55.326Z,14.90
2019-05-22T08:05:56.217Z,14.72
2019-05-22T08:06:55.282Z,14.68
2019-05-22T08:07:55.260Z,14.74
2019-05-22T08:08:55.240Z,14.90
2019-05-22T08:09:55.220Z,14.88
2019-05-22T08:10:55.194Z,14.84
2019-05-22T08:11:55.172Z,14.95
2019-05-22T08:12:55.150Z,15.01
2019-05-22T08:13:55.129Z,14.99
2019-05-22T08:14:55.112Z,15.02
2019-05-22T08:15:55.081Z,15.11
2019-05-22T08:16:55.062Z,15.11
2019-05-22T08:17:55.039Z,15.17
2019-05-22T08:18:55.021Z,15.03
2019-05-22T08:19:55.001Z,15.28
2019-05-22T08:20:54.987Z,15.23
2019-05-22T08:22:06.825Z,15.06
2019-05-22T08:22:54.941Z,15.01
2019-05-22T08:23:54.938Z,15.11
2019-05-22T08:24:54.885Z,15.30
2019-05-22T08:25:54.863Z,15.36
2019-05-22T08:26:55.199Z,15.31
2019-05-22T08:27:54.819Z,15.30
2019-05-22T08:28:54.804Z,15.28
2019-05-22T08:29:57.028Z,15.35
2019-05-22T08:30:54.755Z,15.30
2019-05-22T08:31:54.773Z,15.41
2019-05-22T08:32:57.713Z,15.54
2019-05-22T08:33:54.688Z,15.43
2019-05-22T08:34:54.667Z,15.64
2019-05-22T08:35:54.644Z,15.52
2019-05-22T08:36:54.622Z,15.59
2019-05-22T08:37:54.609Z,15.63
2019-05-22T08:38:55.329Z,15.51
2019-05-22T08:39:54.605Z,15.46
2019-05-22T08:40:54.541Z,15.42
2019-05-22T08:41:54.513Z,15.28
2019-05-22T08:42:54.492Z,15.41
2019-05-22T08:44:14.501Z,15.45
2019-05-22T08:44:54.447Z,15.52
2019-05-22T08:45:54.428Z,15.52
2019-05-22T08:46:54.407Z,15.45
2019-05-22T08:47:54.382Z,15.59
2019-05-22T08:48:54.362Z,15.60
2019-05-22T08:49:54.342Z,15.57
2019-05-22T08:50:54.323Z,15.52
2019-05-22T08:51:54.295Z,15.52
2019-05-22T08:52:54.274Z,15.35
2019-05-22T08:53:54.254Z,15.35
2019-05-22T08:54:54.234Z,15.60
2019-05-22T08:55:54.210Z,15.56
2019-05-22T08:56:54.188Z,15.76
2019-05-22T08:57:54.166Z,15.74
2019-05-22T08:58:54.145Z,15.94
2019-05-22T08:59:54.122Z,16.03
2019-05-22T09:00:54.104Z,15.99
2019-05-22T09:01:54.080Z,15.99
2019-05-22T09:02:54.065Z,16.09
2019-05-22T09:03:54.036Z,15.93
2019-05-22T09:04:54.016Z,15.97
2019-05-22T09:05:53.994Z,15.84
2019-05-22T09:06:53.975Z,15.89
2019-05-22T09:07:53.950Z,15.92
2019-05-22T09:08:53.936Z,15.94
2019-05-22T09:09:53.909Z,15.96
2019-05-22T09:10:55.391Z,16.16
2019-05-22T09:11:53.866Z,16.09
2019-05-22T09:12:53.848Z,16.16
2019-05-22T09:13:53.823Z,16.14
2019-05-22T09:14:53.802Z,16.09
2019-05-22T09:15:53.793Z,16.01
2019-05-22T09:16:53.761Z,16.11
2019-05-22T09:17:53.738Z,16.42
2019-05-22T09:18:53.717Z,16.59
2019-05-22T09:19:53.694Z,16.60
2019-05-22T09:20:53.674Z,16.80
2019-05-22T09:21:53.652Z,16.58
2019-05-22T09:22:53.633Z,16.42
2019-05-22T09:23:53.610Z,16.60
2019-05-22T09:24:53.589Z,16.41
2019-05-22T09:25:53.567Z,16.59
2019-05-22T09:26:53.548Z,16.40
2019-05-22T09:27:54.282Z,16.45
2019-05-22T09:28:53.508Z,16.60
2019-05-22T09:29:53.489Z,16.58
2019-05-22T09:30:53.467Z,16.60
2019-05-22T09:31:53.441Z,16.81
2019-05-22T09:32:53.421Z,16.62
2019-05-22T09:33:53.400Z,16.53
2019-05-22T09:34:53.379Z,16.53
2019-05-22T09:35:53.357Z,16.62
2019-05-22T09:36:53.336Z,16.77
2019-05-22T09:37:53.328Z,16.80
2019-05-22T09:38:53.296Z,16.78
2019-05-22T09:39:53.275Z,16.95
2019-05-22T09:40:53.253Z,16.78
2019-05-22T09:41:53.232Z,16.78
2019-05-22T09:42:53.215Z,16.70
2019-05-22T09:43:53.190Z,16.96
2019-05-22T09:44:53.170Z,16.45
2019-05-22T09:45:53.148Z,16.56
2019-05-22T09:46:53.127Z,16.65
2019-05-22T09:47:53.111Z,16.73
2019-05-22T09:48:53.086Z,16.68
2019-05-22T09:49:53.064Z,16.59
2019-05-22T09:50:53.044Z,16.73
2019-05-22T09:51:53.024Z,16.74
2019-05-22T09:52:57.484Z,16.95
2019-05-22T09:53:52.980Z,16.89
2019-05-22T09:54:52.962Z,17.07
2019-05-22T09:55:52.939Z,17.11
2019-05-22T09:56:52.917Z,16.95
2019-05-22T09:57:52.897Z,16.96
2019-05-22T09:58:52.876Z,16.95
2019-05-22T09:59:52.855Z,17.00
2019-05-22T10:00:52.835Z,17.08
2019-05-22T10:01:52.816Z,17.06
2019-05-22T10:02:52.793Z,17.00
2019-05-22T10:03:52.771Z,16.85
2019-05-22T10:04:52.751Z,16.85
2019-05-22T10:05:52.867Z,16.86
2019-05-22T10:06:52.710Z,16.88
2019-05-22T10:08:00.328Z,16.89
2019-05-22T10:08:52.667Z,17.10
2019-05-22T10:09:52.647Z,17.00
2019-05-22T10:10:52.627Z,17.13
2019-05-22T10:11:52.605Z,17.15
2019-05-22T10:12:52.601Z,17.33
2019-05-22T10:13:52.573Z,17.35
2019-05-22T10:14:52.651Z,17.50
2019-05-22T10:15:54.773Z,17.32
2019-05-22T10:16:52.501Z,17.13
2019-05-22T10:17:52.480Z,17.35
2019-05-22T10:18:53.619Z,17.29
2019-05-22T10:19:52.442Z,17.46
2019-05-22T10:20:52.417Z,17.53
2019-05-22T10:21:53.149Z,17.54
2019-05-22T10:22:52.384Z,17.55
2019-05-22T10:23:52.355Z,17.54
2019-05-22T10:24:52.337Z,17.46
2019-05-22T10:25:52.317Z,17.50
2019-05-22T10:26:52.295Z,17.41
2019-05-22T10:27:52.273Z,17.35
2019-05-22T10:28:52.255Z,17.17
2019-05-22T10:29:52.231Z,17.11
2019-05-22T10:30:52.443Z,17.29
2019-05-22T10:31:52.190Z,17.46
2019-05-22T10:32:54.468Z,17.40
2019-05-22T10:33:52.405Z,17.59
2019-05-22T10:34:52.134Z,17.73
2019-05-22T10:35:52.107Z,17.78
2019-05-22T10:36:52.097Z,17.76
2019-05-22T10:37:52.066Z,17.84
2019-05-22T10:38:52.045Z,17.92
2019-05-22T10:39:52.025Z,17.91
2019-05-22T10:40:52.009Z,17.89
2019-05-22T10:41:51.984Z,17.88
2019-05-22T10:42:51.969Z,17.78
2019-05-22T10:43:51.943Z,17.66
2019-05-22T10:44:51.922Z,17.76
2019-05-22T10:45:51.901Z,17.89
2019-05-22T10:46:51.881Z,17.88
2019-05-22T10:47:51.861Z,17.84
2019-05-22T10:48:51.842Z,17.85
2019-05-22T10:49:51.820Z,17.97
2019-05-22T10:50:51.805Z,18.19
2019-05-22T10:51:51.781Z,18.10
2019-05-22T10:52:54.614Z,17.89
2019-05-22T10:53:51.739Z,18.03
2019-05-22T10:54:51.717Z,18.18
2019-05-22T10:55:51.699Z,18.31
2019-05-22T10:56:51.677Z,18.25
2019-05-22T10:57:51.778Z,18.33
2019-05-22T10:58:51.636Z,18.34
2019-05-22T10:59:51.615Z,18.25
2019-05-22T11:00:51.595Z,18.00
2019-05-22T11:01:51.583Z,18.18
2019-05-22T11:02:51.554Z,18.15
2019-05-22T11:03:51.533Z,18.27
2019-05-22T11:04:51.514Z,18.29
2019-05-22T11:06:05.828Z,18.37
2019-05-22T11:06:51.472Z,18.37
2019-05-22T11:07:51.467Z,17.91
2019-05-22T11:08:51.441Z,17.78
2019-05-22T11:09:54.414Z,17.91
2019-05-22T11:10:51.417Z,18.15
2019-05-22T11:11:51.373Z,18.42
2019-05-22T11:12:51.355Z,18.58
2019-05-22T11:14:01.188Z,18.29
2019-05-22T11:14:51.312Z,17.92
2019-05-22T11:15:53.548Z,17.92
2019-05-22T11:16:51.268Z,17.97
2019-05-22T11:17:51.255Z,18.13
2019-05-22T11:18:51.227Z,18.03
2019-05-22T11:19:51.210Z,18.07
2019-05-22T11:20:51.186Z,18.18
2019-05-22T11:21:52.669Z,18.33
2019-05-22T11:22:51.147Z,18.49
2019-05-22T11:23:53.026Z,18.29
2019-05-22T11:24:51.107Z,18.29
2019-05-22T11:25:51.126Z,18.28
2019-05-22T11:26:51.067Z,18.46
2019-05-22T11:27:51.796Z,18.27
2019-05-22T11:28:51.025Z,18.39
2019-05-22T11:29:51.006Z,18.70
2019-05-22T11:30:50.986Z,18.72
2019-05-22T11:31:50.966Z,18.94
2019-05-22T11:32:50.946Z,18.83
2019-05-22T11:33:50.938Z,18.84
2019-05-22T11:34:50.904Z,18.77
2019-05-22T11:35:50.884Z,18.95
2019-05-22T11:36:50.865Z,18.95
2019-05-22T11:37:50.896Z,18.87
2019-05-22T11:38:51.576Z,18.59
2019-05-22T11:39:50.803Z,18.65
2019-05-22T11:40:50.782Z,18.72
2019-05-22T11:41:50.764Z,18.40
2019-05-22T11:42:50.806Z,18.36
2019-05-22T11:43:50.792Z,18.67
2019-05-22T11:44:50.703Z,18.62
2019-05-22T11:45:50.684Z,18.94
2019-05-22T11:46:50.663Z,19.11
2019-05-22T11:47:50.644Z,19.11
2019-05-22T11:48:50.623Z,18.91
2019-05-22T11:49:50.602Z,18.77
2019-05-22T11:50:50.584Z,18.52
2019-05-22T11:51:50.563Z,18.17
2019-05-22T11:52:50.543Z,18.36
2019-05-22T11:54:07.503Z,18.61
2019-05-22T11:54:50.526Z,18.86
2019-05-22T11:55:50.484Z,18.73
2019-05-22T11:56:50.463Z,18.87
2019-05-22T11:57:50.444Z,19.05
2019-05-22T11:58:50.425Z,19.25
2019-05-22T11:59:53.406Z,19.33
2019-05-22T12:00:50.385Z,19.08
2019-05-22T12:01:50.366Z,19.08
2019-05-22T12:02:50.347Z,19.13
2019-05-22T12:03:50.326Z,18.80
2019-05-22T12:04:50.306Z,18.90
2019-05-22T12:05:50.288Z,19.08
2019-05-22T12:06:53.406Z,19.18
2019-05-22T12:07:50.249Z,19.17
2019-05-22T12:08:50.227Z,19.11
2019-05-22T12:09:50.210Z,19.21
2019-05-22T12:10:50.194Z,19.42
2019-05-22T12:11:50.171Z,19.21
2019-05-22T12:12:50.151Z,19.28
2019-05-22T12:13:50.133Z,19.29
2019-05-22T12:14:50.115Z,19.36
2019-05-22T12:15:50.092Z,19.23
2019-05-22T12:16:53.082Z,19.42
2019-05-22T12:17:50.056Z,19.43
2019-05-22T12:18:50.040Z,19.53
2019-05-22T12:19:50.017Z,19.46
2019-05-22T12:20:50.001Z,19.32
2019-05-22T12:21:55.235Z,19.32
2019-05-22T12:22:49.971Z,19.18
2019-05-22T12:23:49.946Z,19.36
2019-05-22T12:24:49.923Z,19.58
2019-05-22T12:25:49.904Z,19.86
2019-05-22T12:26:49.887Z,19.98
2019-05-22T12:27:51.367Z,20.09
2019-05-22T12:28:49.857Z,19.75
2019-05-22T12:29:49.828Z,19.72
2019-05-22T12:30:49.814Z,19.90
2019-05-22T12:31:49.788Z,20.05
2019-05-22T12:32:49.798Z,20.24
2019-05-22T12:33:49.752Z,19.47
2019-05-22T12:34:49.984Z,19.60
2019-05-22T12:35:49.713Z,19.61
2019-05-22T12:36:51.356Z,19.61
2019-05-22T12:37:49.679Z,19.33
2019-05-22T12:38:49.658Z,19.14
2019-05-22T12:39:49.638Z,19.54
2019-05-22T12:40:49.620Z,19.80
2019-05-22T12:41:49.608Z,19.93
2019-05-22T12:42:49.589Z,19.95
2019-05-22T12:43:49.565Z,20.00
2019-05-22T12:44:49.548Z,19.66
2019-05-22T12:45:49.534Z,19.29
2019-05-22T12:46:49.509Z,19.40
2019-05-22T12:47:49.489Z,19.58
2019-05-22T12:48:49.475Z,19.42
2019-05-22T12:49:49.453Z,19.50
2019-05-22T12:50:49.435Z,19.79
2019-05-22T12:51:49.445Z,20.16